Time;durP1;ratioP1;P1;durP2;ratioP2;P2;SDS_P1;SDS_P2;PMS_P1;PMS_P2;Temp;Humidity;BMP_temperature;BMP_pressure;BME280_temperature;BME280_humidity;BME280_pressure;Samples;Min_cycle;Max_cycle;Signal;HPM_P1;HPM_P2
2022/03/29 00:01:25;;;;;;;16.10;6.88;;;;;;;;;;5059455;28;20103;-63
2022/03/29 00:03:51;;;;;;;13.88;7.70;;;;;;;;;;5061785;28;20171;-62
2022/03/29 00:06:18;;;;;;;16.50;7.90;;;;;;;;;;5069738;28;20053;-62
2022/03/29 00:08:46;;;;;;;16.13;7.88;;;;;;;;;;5065305;28;20052;-61
2022/03/29 00:11:13;;;;;;;17.05;8.30;;;;;;;;;;5067046;28;20063;-65
2022/03/29 00:13:39;;;;;;;14.98;7.22;;;;;;;;;;5081650;28;20048;-68
2022/03/29 00:16:06;;;;;;;15.07;7.57;;;;;;;;;;5069159;28;20063;-62
2022/03/29 00:18:33;;;;;;;14.40;7.10;;;;;;;;;;5058804;28;20052;-62
2022/03/29 00:20:59;;;;;;;17.30;8.40;;;;;;;;;;5069023;28;20049;-62
2022/03/29 00:23:26;;;;;;;16.60;7.88;;;;;;;;;;5064743;28;20063;-64
2022/03/29 00:25:54;;;;;;;15.73;7.68;;;;;;;;;;5067946;28;20120;-62
2022/03/29 00:28:20;;;;;;;14.63;7.50;;;;;;;;;;5064666;28;20052;-64
2022/03/29 00:30:47;;;;;;;18.08;8.73;;;;;;;;;;5067956;28;20352;-64
2022/03/29 00:33:13;;;;;;;24.38;10.35;;;;;;;;;;5064453;28;20057;-62
2022/03/29 00:35:41;;;;;;;27.23;10.63;;;;;;;;;;5068920;28;20075;-63
2022/03/29 00:38:07;;;;;;;15.55;7.95;;;;;;;;;;5070534;28;20102;-68
2022/03/29 00:40:34;;;;;;;15.82;7.68;;;;;;;;;;5066628;28;20060;-65
2022/03/29 00:43:02;;;;;;;16.08;7.85;;;;;;;;;;5068446;28;20067;-59
2022/03/29 00:45:30;;;;;;;16.63;7.38;;;;;;;;;;5063888;28;20064;-62
2022/03/29 00:47:57;;;;;;;22.65;10.60;;;;;;;;;;5068971;28;20044;-61
2022/03/29 00:50:25;;;;;;;17.38;7.38;;;;;;;;;;5063673;28;20131;-64
2022/03/29 00:52:52;;;;;;;18.73;9.57;;;;;;;;;;5067407;28;20238;-59
2022/03/29 00:55:19;;;;;;;18.88;8.70;;;;;;;;;;5060190;28;20056;-59
2022/03/29 00:57:46;;;;;;;21.80;10.07;;;;;;;;;;5047518;28;20049;-62
2022/03/29 01:00:16;;;;;;;20.38;8.70;;;;;;;;;;5052306;28;20121;-61
2022/03/29 01:02:43;;;;;;;21.05;9.98;;;;;;;;;;5066722;28;20064;-59
2022/03/29 01:05:11;;;;;;;17.10;8.85;;;;;;;;;;5062954;28;20106;-59
2022/03/29 01:07:37;;;;;;;22.13;9.82;;;;;;;;;;5084548;28;20053;-61
2022/03/29 01:10:06;;;;;;;17.45;8.75;;;;;;;;;;5080122;28;20048;-62
2022/03/29 01:12:33;;;;;;;14.48;7.50;;;;;;;;;;5067923;28;20053;-66
2022/03/29 01:15:00;;;;;;;23.77;10.63;;;;;;;;;;5080864;28;20048;-60
2022/03/29 01:17:39;;;;;;;19.85;9.25;;;;;;;;;;5067166;28;20063;-61
2022/03/29 01:20:10;;;;;;;20.95;8.00;;;;;;;;;;5063482;28;20063;-61
2022/03/29 01:22:40;;;;;;;14.02;7.45;;;;;;;;;;5067782;28;20084;-62
2022/03/29 01:25:08;;;;;;;25.60;11.68;;;;;;;;;;5083173;28;20068;-65
2022/03/29 01:27:35;;;;;;;18.65;8.95;;;;;;;;;;5082626;28;20088;-62
2022/03/29 01:30:02;;;;;;;20.77;8.95;;;;;;;;;;5066726;28;20064;-62
2022/03/29 01:32:29;;;;;;;18.92;8.52;;;;;;;;;;5045950;28;20057;-60
2022/03/29 01:34:57;;;;;;;18.42;8.43;;;;;;;;;;5047882;28;20057;-62
2022/03/29 01:37:24;;;;;;;18.17;9.02;;;;;;;;;;5076466;28;20048;-62
2022/03/29 01:39:52;;;;;;;18.92;8.60;;;;;;;;;;5083525;28;20110;-61
2022/03/29 01:42:19;;;;;;;;;;;;;;;;;;5062926;28;20143;-63
2022/03/29 01:44:45;;;;;;;17.58;9.23;;;;;;;;;;5066702;28;20009;-62
2022/03/29 01:47:12;;;;;;;26.95;11.48;;;;;;;;;;5055361;28;20094;-63
2022/03/29 01:49:39;;;;;;;28.27;10.95;;;;;;;;;;5085589;28;20056;-58
2022/03/29 01:52:06;;;;;;;26.42;12.63;;;;;;;;;;5058524;28;20094;-62
2022/03/29 01:54:32;;;;;;;23.63;9.50;;;;;;;;;;5066909;28;20053;-59
2022/03/29 01:57:00;;;;;;;18.52;9.15;;;;;;;;;;5046285;28;20048;-60
2022/03/29 02:00:30;;;;;;;22.33;8.60;;;;;;;;;;5050356;28;20058;-64
2022/03/29 02:02:15;;;;;;;19.77;9.32;;;;;;;;;;5044645;28;20068;-60
2022/03/29 02:04:42;;;;;;;22.55;10.27;;;;;;;;;;5060369;28;20052;-63
2022/03/29 02:07:08;;;;;;;21.60;9.77;;;;;;;;;;5058953;28;20056;-60
2022/03/29 02:09:43;;;;;;;24.23;10.18;;;;;;;;;;5052778;28;20059;-63
2022/03/29 02:12:12;;;;;;;19.55;8.52;;;;;;;;;;5045943;28;20060;-61
2022/03/29 02:14:38;;;;;;;19.48;8.48;;;;;;;;;;5057812;28;20052;-65
2022/03/29 02:17:05;;;;;;;21.00;10.55;;;;;;;;;;5056872;28;20068;-69
2022/03/29 02:19:32;;;;;;;18.40;8.35;;;;;;;;;;5052565;28;20053;-67
2022/03/29 02:21:59;;;;;;;27.23;11.13;;;;;;;;;;5067130;28;20109;-69
2022/03/29 02:24:25;;;;;;;27.00;11.35;;;;;;;;;;5066316;28;20110;-62
2022/03/29 02:26:52;;;;;;;19.90;9.52;;;;;;;;;;5060852;28;20137;-62
2022/03/29 02:29:20;;;;;;;18.10;8.57;;;;;;;;;;5061997;28;20143;-61
2022/03/29 02:31:46;;;;;;;22.15;9.20;;;;;;;;;;5086332;28;20048;-69
2022/03/29 02:34:13;;;;;;;18.80;8.73;;;;;;;;;;5069233;28;20114;-62
2022/03/29 02:36:40;;;;;;;23.63;10.63;;;;;;;;;;5062577;28;20060;-67
2022/03/29 02:39:06;;;;;;;20.48;8.38;;;;;;;;;;5061404;28;20056;-70
2022/03/29 02:41:33;;;;;;;19.60;8.85;;;;;;;;;;5063120;28;20052;-68
2022/03/29 02:43:59;;;;;;;21.60;9.45;;;;;;;;;;5065620;28;20044;-68
2022/03/29 02:46:27;;;;;;;25.02;11.13;;;;;;;;;;5097126;27;20062;-69
2022/03/29 02:48:54;;;;;;;18.75;8.57;;;;;;;;;;5074278;28;20058;-69
2022/03/29 02:51:21;;;;;;;20.13;8.77;;;;;;;;;;5075010;28;20044;-61
2022/03/29 02:53:47;;;;;;;21.30;9.05;;;;;;;;;;5072511;28;20056;-59
2022/03/29 02:56:14;;;;;;;22.42;10.45;;;;;;;;;;5057729;28;20136;-61
2022/03/29 02:58:41;;;;;;;17.70;9.02;;;;;;;;;;5048853;28;20083;-63
2022/03/29 03:01:08;;;;;;;24.50;10.95;;;;;;;;;;5039721;28;20053;-61
2022/03/29 03:03:36;;;;;;;20.13;9.35;;;;;;;;;;5054772;28;20067;-58
2022/03/29 03:06:03;;;;;;;18.73;8.65;;;;;;;;;;5059319;28;20056;-57
2022/03/29 03:08:30;;;;;;;22.92;10.32;;;;;;;;;;5048730;28;20133;-62
2022/03/29 03:10:57;;;;;;;23.67;11.07;;;;;;;;;;5044042;28;20076;-64
2022/03/29 03:13:23;;;;;;;17.77;8.80;;;;;;;;;;5048165;28;20064;-58
2022/03/29 03:15:50;;;;;;;23.75;10.57;;;;;;;;;;5042711;28;20053;-62
2022/03/29 03:18:17;;;;;;;22.95;10.13;;;;;;;;;;5048611;28;20049;-64
2022/03/29 03:20:46;;;;;;;19.48;8.32;;;;;;;;;;5044681;28;20053;-59
2022/03/29 03:23:12;;;;;;;22.92;9.98;;;;;;;;;;5048428;28;20052;-61
2022/03/29 03:25:39;;;;;;;21.75;9.38;;;;;;;;;;5043502;28;20048;-62
2022/03/29 03:28:06;;;;;;;19.05;8.27;;;;;;;;;;5048817;28;20052;-60
2022/03/29 03:30:33;;;;;;;21.10;10.00;;;;;;;;;;5044934;28;20053;-58
2022/03/29 03:33:00;;;;;;;18.98;8.75;;;;;;;;;;5047808;28;20063;-63
2022/03/29 03:35:26;;;;;;;21.92;9.95;;;;;;;;;;5043950;28;20139;-67
2022/03/29 03:37:54;;;;;;;21.15;9.32;;;;;;;;;;5049225;28;20052;-64
2022/03/29 03:40:23;;;;;;;21.80;9.35;;;;;;;;;;5045658;28;20053;-59
2022/03/29 03:42:50;;;;;;;19.13;8.68;;;;;;;;;;5048068;28;20065;-62
2022/03/29 03:45:16;;;;;;;18.08;8.68;;;;;;;;;;5048786;28;20080;-64
2022/03/29 03:47:43;;;;;;;18.88;8.48;;;;;;;;;;5044538;28;20068;-60
2022/03/29 03:50:10;;;;;;;19.88;8.48;;;;;;;;;;5064775;28;20063;-63
2022/03/29 03:52:37;;;;;;;17.38;8.65;;;;;;;;;;5042801;28;20133;-66
2022/03/29 03:55:06;;;;;;;16.40;7.65;;;;;;;;;;5052221;28;20049;-63
2022/03/29 03:57:32;;;;;;;;;;;;;;;;;;5072566;28;20048;-67
2022/03/29 04:00:00;;;;;;;18.42;8.23;;;;;;;;;;5075621;28;19931;-65
2022/03/29 04:02:27;;;;;;;15.73;7.57;;;;;;;;;;5059223;28;20101;-63
2022/03/29 04:04:54;;;;;;;23.45;9.73;;;;;;;;;;5068711;28;20053;-67
2022/03/29 04:07:20;;;;;;;17.05;8.45;;;;;;;;;;5069175;28;20136;-62
2022/03/29 04:09:48;;;;;;;23.52;10.18;;;;;;;;;;5088520;28;20052;-67
2022/03/29 04:12:16;;;;;;;21.98;9.77;;;;;;;;;;5062224;28;20067;-66
2022/03/29 04:14:42;;;;;;;17.23;8.00;;;;;;;;;;5052032;28;20130;-66
2022/03/29 04:17:11;;;;;;;19.38;9.32;;;;;;;;;;5047939;28;20076;-68
2022/03/29 04:19:37;;;;;;;22.63;9.02;;;;;;;;;;5051724;28;20114;-65
2022/03/29 04:22:04;;;;;;;16.60;7.45;;;;;;;;;;5048411;28;20053;-69
2022/03/29 04:24:31;;;;;;;19.30;8.52;;;;;;;;;;5050589;28;20403;-70
2022/03/29 04:26:58;;;;;;;19.50;9.00;;;;;;;;;;5052000;28;20102;-69
2022/03/29 04:29:27;;;;;;;23.48;9.68;;;;;;;;;;5047680;28;20040;-66
2022/03/29 04:31:53;;;;;;;;;;;;;;;;;;5051792;28;20065;-66
2022/03/29 04:34:20;;;;;;;24.17;10.18;;;;;;;;;;5048035;28;19920;-68
2022/03/29 04:36:47;;;;;;;17.95;8.20;;;;;;;;;;5051125;28;20044;-65
2022/03/29 04:39:15;;;;;;;19.75;8.75;;;;;;;;;;5048225;28;20137;-64
2022/03/29 04:41:41;;;;;;;19.83;7.80;;;;;;;;;;5051521;28;20069;-62
2022/03/29 04:44:08;;;;;;;27.55;10.73;;;;;;;;;;5047663;28;20360;-58
2022/03/29 04:46:36;;;;;;;19.58;8.68;;;;;;;;;;5051471;28;20110;-60
2022/03/29 04:49:05;;;;;;;20.85;8.80;;;;;;;;;;5047873;28;20048;-67
2022/03/29 04:51:34;;;;;;;16.13;7.63;;;;;;;;;;5050882;28;20057;-60
2022/03/29 04:54:01;;;;;;;17.13;8.10;;;;;;;;;;5045635;28;20130;-58
2022/03/29 04:56:27;;;;;;;20.92;9.27;;;;;;;;;;5061582;28;20064;-58
2022/03/29 04:58:54;;;;;;;20.55;8.75;;;;;;;;;;5042178;28;20057;-58
2022/03/29 05:01:20;;;;;;;25.10;11.13;;;;;;;;;;5046606;28;20060;-61
2022/03/29 05:03:49;;;;;;;21.65;8.85;;;;;;;;;;5043059;28;20057;-59
2022/03/29 05:06:15;;;;;;;18.83;8.27;;;;;;;;;;5046652;28;20064;-60
2022/03/29 05:08:46;;;;;;;19.60;8.75;;;;;;;;;;5047425;28;20049;-61
2022/03/29 05:11:13;;;;;;;15.15;7.60;;;;;;;;;;5043593;28;20057;-65
2022/03/29 05:13:42;;;;;;;18.23;8.60;;;;;;;;;;5045905;28;20056;-63
2022/03/29 05:16:08;;;;;;;16.10;7.60;;;;;;;;;;5040481;28;20063;-62
2022/03/29 05:18:35;;;;;;;19.42;9.10;;;;;;;;;;5047142;28;20060;-61
2022/03/29 05:21:03;;;;;;;19.67;8.20;;;;;;;;;;5041520;28;20106;-62
2022/03/29 05:23:29;;;;;;;16.90;8.25;;;;;;;;;;5045388;28;20060;-66
2022/03/29 05:25:56;;;;;;;17.90;7.97;;;;;;;;;;5041136;28;20060;-63
2022/03/29 05:28:23;;;;;;;18.05;8.50;;;;;;;;;;5045369;28;20131;-60
2022/03/29 05:30:50;;;;;;;18.95;8.07;;;;;;;;;;5041155;28;20049;-61
2022/03/29 05:33:18;;;;;;;15.35;7.68;;;;;;;;;;5043784;28;20077;-65
2022/03/29 05:35:45;;;;;;;21.35;9.18;;;;;;;;;;5041750;28;20102;-62
2022/03/29 05:38:13;;;;;;;20.13;8.43;;;;;;;;;;5046531;28;20161;-65
2022/03/29 05:40:41;;;;;;;19.23;8.75;;;;;;;;;;5041468;28;20052;-65
2022/03/29 05:43:11;;;;;;;23.42;11.10;;;;;;;;;;5044618;28;20067;-61
2022/03/29 05:45:39;;;;;;;23.73;10.05;;;;;;;;;;5042594;28;20110;-61
2022/03/29 05:50:52;;;;;;;17.50;8.10;;;;;;;;;;5055064;28;20083;-63
2022/03/29 05:53:20;;;;;;;15.48;7.30;;;;;;;;;;5063710;28;20059;-62
2022/03/29 05:55:48;;;;;;;22.80;7.78;;;;;;;;;;5063017;28;20044;-62
2022/03/29 05:58:17;;;;;;;19.35;8.90;;;;;;;;;;5046410;28;20327;-59
2022/03/29 06:00:46;;;;;;;21.75;9.82;;;;;;;;;;5046598;28;20060;-63
2022/03/29 06:03:13;;;;;;;16.73;8.07;;;;;;;;;;5059994;28;20129;-63
2022/03/29 06:05:46;;;;;;;19.42;8.63;;;;;;;;;;5038618;28;20059;-60
2022/03/29 06:08:12;;;;;;;20.70;9.15;;;;;;;;;;5044577;28;20114;-61
2022/03/29 06:10:42;;;;;;;17.10;7.90;;;;;;;;;;5060950;28;20133;-61
2022/03/29 06:13:10;;;;;;;21.70;9.45;;;;;;;;;;5006146;28;20046;-60
2022/03/29 06:15:37;;;;;;;20.27;9.10;;;;;;;;;;5028157;28;20061;-67
2022/03/29 06:18:03;;;;;;;20.27;8.60;;;;;;;;;;5017518;28;20395;-60
2022/03/29 06:20:30;;;;;;;17.15;7.60;;;;;;;;;;5027058;28;20049;-59
2022/03/29 06:22:57;;;;;;;19.50;8.75;;;;;;;;;;5025351;28;20132;-61
2022/03/29 06:25:23;;;;;;;19.58;7.93;;;;;;;;;;5046649;28;20049;-60
2022/03/29 06:27:54;;;;;;;18.33;7.70;;;;;;;;;;5034557;28;20140;-63
2022/03/29 06:30:21;;;;;;;17.70;7.75;;;;;;;;;;5026365;28;20061;-62
2022/03/29 06:32:48;;;;;;;20.13;8.95;;;;;;;;;;5028766;28;20053;-61
2022/03/29 06:35:15;;;;;;;17.73;8.02;;;;;;;;;;5047573;28;20053;-58
2022/03/29 06:37:42;;;;;;;19.42;8.68;;;;;;;;;;5039975;28;20053;-65
2022/03/29 06:40:09;;;;;;;20.45;8.07;;;;;;;;;;5027240;28;20061;-59
2022/03/29 06:42:36;;;;;;;21.63;7.93;;;;;;;;;;5023107;28;20076;-58
2022/03/29 06:45:04;;;;;;;17.33;7.15;;;;;;;;;;5026947;28;20049;-58
2022/03/29 06:47:32;;;;;;;22.15;10.13;;;;;;;;;;5027613;28;20053;-58
2022/03/29 06:50:00;;;;;;;16.05;7.50;;;;;;;;;;5004385;28;20054;-60
2022/03/29 06:52:28;;;;;;;19.33;7.03;;;;;;;;;;5007877;28;20085;-61
2022/03/29 06:54:55;;;;;;;20.90;8.55;;;;;;;;;;5019655;28;20294;-61
2022/03/29 06:57:21;;;;;;;24.52;10.18;;;;;;;;;;5026879;28;20057;-58
2022/03/29 06:59:48;;;;;;;21.88;9.10;;;;;;;;;;5011684;28;20084;-59
2022/03/29 07:02:16;;;;;;;23.70;8.52;;;;;;;;;;5010643;28;20057;-60
2022/03/29 07:04:43;;;;;;;17.77;7.75;;;;;;;;;;5008418;28;20061;-59
2022/03/29 07:07:09;;;;;;;19.58;9.27;;;;;;;;;;5020143;28;20056;-64
2022/03/29 07:12:21;;;;;;;26.98;11.20;;;;;;;;;;5030337;28;20045;-58
2022/03/29 07:14:48;;;;;;;26.63;9.60;;;;;;;;;;5026379;28;20060;-59
2022/03/29 07:17:17;;;;;;;23.17;9.13;;;;;;;;;;5023643;28;20052;-60
2022/03/29 07:19:44;;;;;;;25.38;11.48;;;;;;;;;;5020308;28;20048;-65
2022/03/29 07:22:11;;;;;;;27.08;11.30;;;;;;;;;;5029166;28;20100;-58
2022/03/29 07:24:38;;;;;;;27.90;10.18;;;;;;;;;;5026691;28;20049;-60
2022/03/29 07:27:04;;;;;;;21.27;9.13;;;;;;;;;;5030365;28;20053;-60
2022/03/29 07:29:33;;;;;;;18.25;8.52;;;;;;;;;;5025723;28;20050;-66
2022/03/29 07:31:59;;;;;;;16.40;7.53;;;;;;;;;;5029914;28;20053;-59
2022/03/29 07:34:29;;;;;;;20.65;8.10;;;;;;;;;;5029311;28;20060;-64
2022/03/29 07:36:57;;;;;;;17.98;7.60;;;;;;;;;;5029224;28;20057;-63
2022/03/29 07:39:23;;;;;;;23.02;9.20;;;;;;;;;;5028457;28;20055;-59
2022/03/29 07:41:50;;;;;;;26.15;10.13;;;;;;;;;;5019496;28;20057;-60
2022/03/29 07:44:17;;;;;;;28.33;11.45;;;;;;;;;;5043483;28;20050;-60
2022/03/29 07:46:44;;;;;;;24.88;9.60;;;;;;;;;;5043122;28;20119;-62
2022/03/29 07:49:12;;;;;;;24.15;10.18;;;;;;;;;;5046404;28;20049;-63
2022/03/29 07:51:40;;;;;;;22.23;8.20;;;;;;;;;;5039585;28;20053;-62
2022/03/29 07:54:06;;;;;;;25.38;10.77;;;;;;;;;;5046203;28;20142;-64
2022/03/29 07:56:33;;;;;;;20.48;8.15;;;;;;;;;;5036117;28;20049;-60
2022/03/29 07:59:00;;;;;;;24.80;10.13;;;;;;;;;;5029186;28;20056;-61
2022/03/29 08:01:28;;;;;;;29.58;11.10;;;;;;;;;;5033547;28;20053;-61
2022/03/29 08:03:55;;;;;;;28.88;10.13;;;;;;;;;;5049496;28;20061;-59
2022/03/29 08:06:21;;;;;;;23.80;9.98;;;;;;;;;;5045177;28;20041;-61
2022/03/29 08:08:53;;;;;;;24.27;9.02;;;;;;;;;;5067207;28;20049;-62
2022/03/29 08:11:21;;;;;;;20.75;8.23;;;;;;;;;;5046078;28;20122;-63
2022/03/29 08:13:48;;;;;;;28.45;9.77;;;;;;;;;;5049751;28;20049;-62
2022/03/29 08:16:15;;;;;;;21.23;8.40;;;;;;;;;;5061488;28;20138;-58
2022/03/29 08:18:42;;;;;;;18.70;7.68;;;;;;;;;;5049389;28;20045;-62
2022/03/29 08:23:51;;;;;;;23.27;9.48;;;;;;;;;;5027927;28;20088;-58
2022/03/29 08:26:17;;;;;;;25.15;9.98;;;;;;;;;;5028974;28;20056;-61
2022/03/29 08:28:44;;;;;;;21.48;8.63;;;;;;;;;;5025493;28;20068;-62
2022/03/29 08:31:11;;;;;;;24.50;9.52;;;;;;;;;;5029048;28;20053;-58
2022/03/29 08:33:37;;;;;;;31.23;10.68;;;;;;;;;;5008944;28;20050;-60
2022/03/29 08:36:04;;;;;;;26.13;10.90;;;;;;;;;;5009012;28;20072;-60
2022/03/29 08:38:31;;;;;;;21.90;8.30;;;;;;;;;;5022539;28;20087;-62
2022/03/29 08:41:00;;;;;;;18.38;8.10;;;;;;;;;;5046997;28;20059;-63
2022/03/29 08:43:27;;;;;;;;;;;;;;;;;;5044737;28;20060;-60
2022/03/29 08:45:54;;;;;;;21.02;7.63;;;;;;;;;;5049166;28;20013;-62
2022/03/29 08:48:23;;;;;;;23.98;8.68;;;;;;;;;;5044093;28;20059;-58
2022/03/29 08:50:51;;;;;;;20.52;7.85;;;;;;;;;;5047588;28;20079;-62
2022/03/29 08:53:19;;;;;;;17.85;7.72;;;;;;;;;;5044817;28;20056;-61
2022/03/29 08:55:46;;;;;;;;;;;;;;;;;;5061697;28;20060;-61
2022/03/29 08:58:14;;;;;;;21.38;8.68;;;;;;;;;;5024535;28;19948;-64
2022/03/29 09:00:42;;;;;;;18.85;7.80;;;;;;;;;;5028186;28;20144;-67
2022/03/29 09:03:09;;;;;;;26.57;10.03;;;;;;;;;;5024075;28;20063;-58
2022/03/29 09:05:35;;;;;;;28.35;11.52;;;;;;;;;;5027877;28;20115;-60
2022/03/29 09:08:08;;;;;;;31.27;11.20;;;;;;;;;;5027669;28;20057;-65
2022/03/29 09:10:43;;;;;;;27.83;9.68;;;;;;;;;;5026843;28;20054;-62
2022/03/29 09:13:21;;;;;;;21.40;7.53;;;;;;;;;;5027696;28;20063;-64
2022/03/29 09:15:48;;;;;;;27.98;10.18;;;;;;;;;;5026738;28;20115;-57
2022/03/29 09:18:15;;;;;;;22.65;9.70;;;;;;;;;;5027593;28;20123;-61
2022/03/29 09:20:44;;;;;;;25.88;10.32;;;;;;;;;;5023329;28;20048;-62
2022/03/29 09:23:14;;;;;;;19.65;8.02;;;;;;;;;;5027488;28;20072;-65
2022/03/29 09:25:46;;;;;;;26.40;9.93;;;;;;;;;;5024055;28;20045;-61
2022/03/29 09:28:14;;;;;;;25.83;10.80;;;;;;;;;;5028715;28;20050;-58
2022/03/29 09:30:44;;;;;;;24.90;10.02;;;;;;;;;;5023802;28;20103;-60
2022/03/29 09:33:12;;;;;;;29.25;11.07;;;;;;;;;;5028203;28;20060;-58
2022/03/29 09:35:52;;;;;;;30.30;11.82;;;;;;;;;;5024032;28;20107;-62
2022/03/29 09:38:23;;;;;;;22.30;9.00;;;;;;;;;;5027951;28;20057;-60
2022/03/29 09:40:50;;;;;;;31.65;10.60;;;;;;;;;;5023599;28;20045;-63
2022/03/29 09:43:16;;;;;;;22.65;9.15;;;;;;;;;;5019212;28;20060;-60
2022/03/29 09:45:46;;;;;;;23.38;9.32;;;;;;;;;;5023658;28;20055;-59
2022/03/29 09:48:20;;;;;;;22.33;8.50;;;;;;;;;;5025768;28;20046;-61
2022/03/29 09:50:47;;;;;;;27.75;9.95;;;;;;;;;;5014430;28;20045;-58
2022/03/29 09:53:33;;;;;;;27.75;10.02;;;;;;;;;;5008203;28;20060;-61
2022/03/29 09:56:00;;;;;;;25.35;10.07;;;;;;;;;;5013008;28;20046;-58
2022/03/29 09:58:26;;;;;;;26.98;9.90;;;;;;;;;;5027800;28;20064;-58
2022/03/29 10:00:55;;;;;;;34.50;12.95;;;;;;;;;;5016995;28;20115;-59
2022/03/29 10:03:24;;;;;;;27.15;9.77;;;;;;;;;;5007399;28;20061;-61
2022/03/29 10:05:53;;;;;;;26.35;9.63;;;;;;;;;;5018831;28;20163;-58
2022/03/29 10:11:07;;;;;;;29.52;10.35;;;;;;;;;;5008604;28;20131;-59
2022/03/29 10:13:36;;;;;;;33.00;11.63;;;;;;;;;;5021982;28;20095;-58
2022/03/29 10:16:06;;;;;;;35.83;13.50;;;;;;;;;;5022219;28;20053;-58
2022/03/29 10:18:32;;;;;;;37.58;12.90;;;;;;;;;;5027470;28;20045;-57
2022/03/29 10:21:00;;;;;;;36.40;12.73;;;;;;;;;;5024645;28;20135;-58
2022/03/29 10:23:29;;;;;;;33.60;12.93;;;;;;;;;;5023025;28;20049;-58
2022/03/29 10:25:56;;;;;;;27.00;10.20;;;;;;;;;;5023715;28;20340;-59
2022/03/29 10:28:25;;;;;;;24.80;10.38;;;;;;;;;;5004411;28;20104;-57
2022/03/29 10:30:52;;;;;;;26.17;10.25;;;;;;;;;;5013560;28;20071;-59
2022/03/29 10:33:22;;;;;;;28.58;11.18;;;;;;;;;;5021525;28;20058;-61
2022/03/29 10:36:01;;;;;;;24.67;9.30;;;;;;;;;;5011230;28;20060;-66
2022/03/29 10:38:42;;;;;;;38.72;14.40;;;;;;;;;;5023285;28;20057;-59
2022/03/29 10:41:42;;;;;;;30.65;11.73;;;;;;;;;;5030661;28;20049;-61
2022/03/29 10:44:10;;;;;;;30.67;11.75;;;;;;;;;;5007243;28;20141;-60
2022/03/29 10:46:39;;;;;;;31.55;10.57;;;;;;;;;;5011828;28;20152;-60
2022/03/29 10:49:06;;;;;;;;;;;;;;;;;;5024403;28;20068;-66
2022/03/29 10:51:34;;;;;;;22.90;8.80;;;;;;;;;;5030310;28;19956;-60
2022/03/29 10:54:22;;;;;;;25.08;9.70;;;;;;;;;;5012836;28;20050;-58
2022/03/29 10:56:49;;;;;;;;;;;;;;;;;;5027735;28;20065;-64
2022/03/29 10:59:15;;;;;;;23.77;10.00;;;;;;;;;;5058806;28;19924;-58
2022/03/29 11:01:42;;;;;;;22.85;9.45;;;;;;;;;;5050948;28;20110;-64
2022/03/29 11:04:15;;;;;;;29.05;11.15;;;;;;;;;;5033777;28;20061;-58
2022/03/29 11:06:56;;;;;;;31.17;12.07;;;;;;;;;;5047187;28;20085;-60
2022/03/29 11:09:30;;;;;;;23.40;9.73;;;;;;;;;;5039531;28;20044;-58
2022/03/29 11:11:57;;;;;;;32.20;12.85;;;;;;;;;;5050383;28;20057;-60
2022/03/29 11:14:39;;;;;;;31.15;11.48;;;;;;;;;;5045971;28;20096;-61
2022/03/29 11:17:28;;;;;;;37.05;13.85;;;;;;;;;;5050106;28;20140;-59
2022/03/29 11:19:59;;;;;;;39.10;14.05;;;;;;;;;;5062877;28;20049;-62
2022/03/29 11:22:28;;;;;;;28.92;12.10;;;;;;;;;;5008834;28;20056;-63
2022/03/29 11:24:57;;;;;;;31.45;12.90;;;;;;;;;;5038414;28;20049;-59
2022/03/29 11:27:24;;;;;;;26.05;11.02;;;;;;;;;;5050268;28;20133;-59
2022/03/29 11:29:51;;;;;;;23.75;10.27;;;;;;;;;;5062400;28;20049;-63
2022/03/29 11:32:18;;;;;;;27.75;11.18;;;;;;;;;;5050232;28;20056;-61
2022/03/29 11:34:45;;;;;;;27.50;11.55;;;;;;;;;;5046108;28;20045;-61
2022/03/29 11:37:26;;;;;;;26.70;10.73;;;;;;;;;;5051987;28;20050;-60
2022/03/29 11:39:52;;;;;;;32.97;12.48;;;;;;;;;;5032229;28;20063;-59
2022/03/29 11:42:20;;;;;;;30.25;12.15;;;;;;;;;;5049737;28;20111;-58
2022/03/29 11:44:47;;;;;;;29.58;13.13;;;;;;;;;;5044835;28;20049;-59
2022/03/29 11:47:14;;;;;;;39.80;14.20;;;;;;;;;;5066984;28;20052;-63
2022/03/29 11:49:44;;;;;;;29.30;12.25;;;;;;;;;;5045207;28;20357;-63
2022/03/29 11:52:12;;;;;;;25.85;10.75;;;;;;;;;;5049945;28;20056;-68
2022/03/29 11:54:39;;;;;;;36.25;13.45;;;;;;;;;;5046352;28;20140;-64
2022/03/29 11:57:13;;;;;;;29.98;13.05;;;;;;;;;;5028538;28;20057;-62
2022/03/29 11:59:42;;;;;;;31.52;11.77;;;;;;;;;;5029608;28;20050;-65
2022/03/29 12:02:09;;;;;;;29.90;12.00;;;;;;;;;;5060501;28;20056;-62
2022/03/29 12:04:37;;;;;;;28.70;11.85;;;;;;;;;;5066269;28;20051;-62
2022/03/29 12:07:04;;;;;;;26.83;12.18;;;;;;;;;;5062309;28;20068;-63
2022/03/29 12:09:31;;;;;;;29.40;10.88;;;;;;;;;;5049400;28;20044;-65
2022/03/29 12:11:59;;;;;;;30.30;13.50;;;;;;;;;;5045062;28;20091;-60
2022/03/29 12:14:26;;;;;;;28.83;11.18;;;;;;;;;;5048962;28;20122;-64
2022/03/29 12:16:58;;;;;;;26.65;11.50;;;;;;;;;;5061717;28;20133;-63
2022/03/29 12:19:25;;;;;;;30.65;12.43;;;;;;;;;;5074064;28;20113;-58
2022/03/29 12:21:53;;;;;;;25.83;9.45;;;;;;;;;;5047897;28;20048;-66
2022/03/29 12:24:20;;;;;;;29.67;12.02;;;;;;;;;;5048585;28;20162;-63
2022/03/29 12:26:48;;;;;;;26.27;11.57;;;;;;;;;;5041099;28;20057;-66
2022/03/29 12:29:17;;;;;;;23.15;10.38;;;;;;;;;;5028808;28;20053;-71
2022/03/29 12:31:44;;;;;;;28.05;13.52;;;;;;;;;;5047247;28;20071;-71
2022/03/29 12:34:14;;;;;;;30.20;13.18;;;;;;;;;;5065369;28;20044;-63
2022/03/29 12:36:41;;;;;;;33.83;13.23;;;;;;;;;;5044833;28;20076;-58
2022/03/29 12:39:08;;;;;;;29.42;13.20;;;;;;;;;;5065803;28;20045;-63
2022/03/29 12:41:37;;;;;;;23.90;11.27;;;;;;;;;;5044599;28;20045;-62
2022/03/29 12:44:04;;;;;;;21.23;8.48;;;;;;;;;;5048809;28;20064;-67
2022/03/29 12:46:31;;;;;;;25.60;11.75;;;;;;;;;;5065488;28;20059;-66
2022/03/29 12:48:58;;;;;;;24.25;10.88;;;;;;;;;;5041587;28;20100;-66
2022/03/29 12:51:30;;;;;;;22.67;9.90;;;;;;;;;;5029856;28;20053;-62
2022/03/29 12:53:58;;;;;;;25.00;11.85;;;;;;;;;;5025701;28;20064;-64
2022/03/29 12:56:28;;;;;;;26.20;11.77;;;;;;;;;;5027862;28;20112;-68
2022/03/29 12:58:56;;;;;;;25.38;11.88;;;;;;;;;;5039132;28;20072;-64
2022/03/29 13:01:26;;;;;;;23.35;10.75;;;;;;;;;;5048639;28;20121;-67
2022/03/29 13:03:52;;;;;;;23.05;10.23;;;;;;;;;;5045634;28;20052;-62
2022/03/29 13:06:19;;;;;;;24.77;10.68;;;;;;;;;;5045263;28;20118;-68
2022/03/29 13:08:47;;;;;;;34.88;13.02;;;;;;;;;;5022687;28;20057;-63
2022/03/29 13:11:18;;;;;;;22.85;9.70;;;;;;;;;;5027374;28;20045;-71
2022/03/29 13:13:44;;;;;;;20.25;9.65;;;;;;;;;;5017668;28;20056;-65
2022/03/29 13:16:19;;;;;;;19.75;9.30;;;;;;;;;;5027927;28;20053;-71
2022/03/29 13:18:49;;;;;;;21.75;9.35;;;;;;;;;;5024124;28;20057;-60
2022/03/29 13:21:16;;;;;;;19.90;10.07;;;;;;;;;;5027848;28;20054;-60
2022/03/29 13:23:44;;;;;;;24.05;11.05;;;;;;;;;;5023928;28;20056;-60
2022/03/29 13:26:12;;;;;;;20.58;9.10;;;;;;;;;;5027527;28;20061;-67
2022/03/29 13:28:42;;;;;;;21.08;9.77;;;;;;;;;;5023478;28;20042;-61
2022/03/29 13:31:14;;;;;;;24.10;10.43;;;;;;;;;;5027068;28;20061;-63
2022/03/29 13:33:41;;;;;;;22.30;10.30;;;;;;;;;;5011205;28;20049;-65
2022/03/29 13:36:09;;;;;;;21.98;9.60;;;;;;;;;;5018613;28;20049;-60
2022/03/29 13:38:37;;;;;;;26.65;13.48;;;;;;;;;;5019167;28;20075;-63
2022/03/29 13:41:04;;;;;;;25.63;11.77;;;;;;;;;;5008239;28;20058;-64
2022/03/29 13:43:33;;;;;;;24.77;11.93;;;;;;;;;;5016814;28;20066;-64
2022/03/29 13:45:59;;;;;;;29.77;12.00;;;;;;;;;;5012902;28;20054;-75
2022/03/29 13:48:27;;;;;;;20.83;10.07;;;;;;;;;;5028110;28;20053;-62
2022/03/29 13:50:53;;;;;;;21.83;9.80;;;;;;;;;;5024086;28;20072;-70
2022/03/29 13:53:21;;;;;;;19.67;9.63;;;;;;;;;;5027731;28;20107;-65
2022/03/29 13:55:48;;;;;;;25.08;11.23;;;;;;;;;;5023676;28;20049;-69
2022/03/29 13:58:14;;;;;;;23.08;10.40;;;;;;;;;;5027405;28;20053;-63
2022/03/29 14:00:44;;;;;;;22.52;10.15;;;;;;;;;;5014541;28;20060;-76
2022/03/29 14:03:13;;;;;;;22.65;10.38;;;;;;;;;;5008166;28;20053;-67
2022/03/29 14:05:39;;;;;;;;;;;;;;;;;;5009917;28;20054;-67
2022/03/29 14:08:06;;;;;;;18.80;8.65;;;;;;;;;;5017728;28;19925;-72
2022/03/29 14:10:33;;;;;;;20.73;9.70;;;;;;;;;;5008595;28;20049;-69
2022/03/29 14:12:59;;;;;;;19.17;9.50;;;;;;;;;;5027373;28;20053;-61
2022/03/29 14:15:26;;;;;;;27.25;10.20;;;;;;;;;;5023726;28;20053;-66
2022/03/29 14:17:55;;;;;;;21.67;10.27;;;;;;;;;;5027776;28;20054;-69
2022/03/29 14:20:25;;;;;;;25.05;11.15;;;;;;;;;;5023123;28;20056;-64
2022/03/29 14:22:52;;;;;;;25.88;9.18;;;;;;;;;;5027527;28;20053;-67
2022/03/29 14:25:21;;;;;;;20.35;8.85;;;;;;;;;;5027904;28;20049;-65
2022/03/29 14:27:47;;;;;;;;;;;;;;;;;;5024066;28;20041;-66
2022/03/29 14:30:16;;;;;;;19.33;8.80;;;;;;;;;;5026957;28;19925;-63
2022/03/29 14:32:42;;;;;;;;;;;;;;;;;;5022557;28;20049;-64
2022/03/29 14:35:11;;;;;;;19.05;9.48;;;;;;;;;;5027564;28;19921;-61
2022/03/29 14:37:38;;;;;;;18.83;9.23;;;;;;;;;;5022381;28;20056;-61
2022/03/29 14:40:08;;;;;;;22.35;9.68;;;;;;;;;;5027090;28;20049;-67
2022/03/29 14:42:34;;;;;;;19.20;8.93;;;;;;;;;;5023621;28;20049;-61
2022/03/29 14:45:03;;;;;;;18.35;9.00;;;;;;;;;;5027024;28;20054;-63